sensor_id;sensor_type;location;lat;lon;timestamp;P1;durP1;ratioP1;P2;durP2;ratioP2
69185;SDS011;56298;49.246;9.410;2023-07-16T00:02:05;8.53;;;4.43;;
69185;SDS011;56298;49.246;9.410;2023-07-16T00:04:31;7.93;;;4.33;;
69185;SDS011;56298;49.246;9.410;2023-07-16T00:06:58;8.35;;;4.60;;
69185;SDS011;56298;49.246;9.410;2023-07-16T00:09:24;8.15;;;4.90;;
69185;SDS011;56298;49.246;9.410;2023-07-16T00:11:50;8.77;;;4.23;;
69185;SDS011;56298;49.246;9.410;2023-07-16T00:14:15;8.87;;;4.77;;
69185;SDS011;56298;49.246;9.410;2023-07-16T00:16:40;9.70;;;4.53;;
69185;SDS011;56298;49.246;9.410;2023-07-16T00:19:05;10.53;;;4.90;;
69185;SDS011;56298;49.246;9.410;2023-07-16T00:21:31;10.23;;;4.70;;
69185;SDS011;56298;49.246;9.410;2023-07-16T00:23:56;9.27;;;4.13;;
69185;SDS011;56298;49.246;9.410;2023-07-16T00:26:21;8.33;;;4.40;;
69185;SDS011;56298;49.246;9.410;2023-07-16T00:28:47;6.80;;;3.60;;
69185;SDS011;56298;49.246;9.410;2023-07-16T00:31:12;7.50;;;3.67;;
69185;SDS011;56298;49.246;9.410;2023-07-16T00:33:37;8.17;;;3.80;;
69185;SDS011;56298;49.246;9.410;2023-07-16T00:36:03;8.07;;;3.03;;
69185;SDS011;56298;49.246;9.410;2023-07-16T00:38:28;6.88;;;3.13;;
69185;SDS011;56298;49.246;9.410;2023-07-16T00:40:54;9.47;;;3.50;;
69185;SDS011;56298;49.246;9.410;2023-07-16T00:43:20;7.60;;;2.90;;
69185;SDS011;56298;49.246;9.410;2023-07-16T00:45:45;6.27;;;3.20;;
69185;SDS011;56298;49.246;9.410;2023-07-16T00:48:11;7.50;;;3.03;;
69185;SDS011;56298;49.246;9.410;2023-07-16T00:50:37;6.75;;;2.97;;
69185;SDS011;56298;49.246;9.410;2023-07-16T00:53:05;8.53;;;2.90;;
69185;SDS011;56298;49.246;9.410;2023-07-16T00:55:31;6.15;;;2.70;;
69185;SDS011;56298;49.246;9.410;2023-07-16T00:58:04;7.00;;;2.40;;
69185;SDS011;56298;49.246;9.410;2023-07-16T01:00:32;6.72;;;2.80;;
69185;SDS011;56298;49.246;9.410;2023-07-16T01:02:58;7.63;;;2.90;;
69185;SDS011;56298;49.246;9.410;2023-07-16T01:05:24;6.47;;;2.50;;
69185;SDS011;56298;49.246;9.410;2023-07-16T01:07:58;6.63;;;2.30;;
69185;SDS011;56298;49.246;9.410;2023-07-16T01:10:26;6.57;;;2.80;;
69185;SDS011;56298;49.246;9.410;2023-07-16T01:12:54;6.78;;;2.28;;
69185;SDS011;56298;49.246;9.410;2023-07-16T01:15:21;5.13;;;2.07;;
69185;SDS011;56298;49.246;9.410;2023-07-16T01:17:46;7.47;;;2.03;;
69185;SDS011;56298;49.246;9.410;2023-07-16T01:20:11;4.97;;;2.03;;
69185;SDS011;56298;49.246;9.410;2023-07-16T01:22:58;5.33;;;2.07;;
69185;SDS011;56298;49.246;9.410;2023-07-16T01:25:41;5.28;;;1.65;;
69185;SDS011;56298;49.246;9.410;2023-07-16T01:30:51;5.82;;;1.42;;
69185;SDS011;56298;49.246;9.410;2023-07-16T01:33:18;4.50;;;1.60;;
69185;SDS011;56298;49.246;9.410;2023-07-16T01:35:45;5.72;;;1.70;;
69185;SDS011;56298;49.246;9.410;2023-07-16T01:38:12;5.55;;;1.58;;
69185;SDS011;56298;49.246;9.410;2023-07-16T01:40:41;4.18;;;1.80;;
69185;SDS011;56298;49.246;9.410;2023-07-16T01:43:06;6.50;;;1.60;;
69185;SDS011;56298;49.246;9.410;2023-07-16T01:45:31;4.80;;;1.60;;
69185;SDS011;56298;49.246;9.410;2023-07-16T01:48:11;4.77;;;1.60;;
69185;SDS011;56298;49.246;9.410;2023-07-16T01:50:41;6.30;;;1.50;;
69185;SDS011;56298;49.246;9.410;2023-07-16T01:53:07;5.33;;;1.43;;
69185;SDS011;56298;49.246;9.410;2023-07-16T01:55:32;5.00;;;1.25;;
69185;SDS011;56298;49.246;9.410;2023-07-16T01:57:58;5.88;;;1.48;;
69185;SDS011;56298;49.246;9.410;2023-07-16T02:00:23;5.57;;;1.60;;
69185;SDS011;56298;49.246;9.410;2023-07-16T02:02:48;5.50;;;1.50;;
69185;SDS011;56298;49.246;9.410;2023-07-16T02:05:14;4.50;;;1.30;;
69185;SDS011;56298;49.246;9.410;2023-07-16T02:07:40;4.67;;;1.53;;
69185;SDS011;56298;49.246;9.410;2023-07-16T02:10:05;5.50;;;1.45;;
69185;SDS011;56298;49.246;9.410;2023-07-16T02:12:31;6.83;;;1.70;;
69185;SDS011;56298;49.246;9.410;2023-07-16T02:14:56;5.67;;;1.80;;
69185;SDS011;56298;49.246;9.410;2023-07-16T02:17:21;6.23;;;1.67;;
69185;SDS011;56298;49.246;9.410;2023-07-16T02:19:46;6.37;;;1.70;;
69185;SDS011;56298;49.246;9.410;2023-07-16T02:22:12;7.03;;;1.80;;
69185;SDS011;56298;49.246;9.410;2023-07-16T02:24:37;5.73;;;1.63;;
69185;SDS011;56298;49.246;9.410;2023-07-16T02:27:02;5.63;;;1.70;;
69185;SDS011;56298;49.246;9.410;2023-07-16T02:29:28;4.63;;;1.50;;
69185;SDS011;56298;49.246;9.410;2023-07-16T02:31:53;6.33;;;1.53;;
69185;SDS011;56298;49.246;9.410;2023-07-16T02:34:18;6.73;;;1.80;;
69185;SDS011;56298;49.246;9.410;2023-07-16T02:36:43;6.50;;;1.90;;
69185;SDS011;56298;49.246;9.410;2023-07-16T02:39:09;5.47;;;1.53;;
69185;SDS011;56298;49.246;9.410;2023-07-16T02:41:34;6.00;;;1.67;;
69185;SDS011;56298;49.246;9.410;2023-07-16T02:44:00;6.38;;;1.90;;
69185;SDS011;56298;49.246;9.410;2023-07-16T02:46:26;6.30;;;1.60;;
69185;SDS011;56298;49.246;9.410;2023-07-16T02:48:52;7.78;;;1.70;;
69185;SDS011;56298;49.246;9.410;2023-07-16T02:51:17;6.30;;;1.70;;
69185;SDS011;56298;49.246;9.410;2023-07-16T02:53:42;8.20;;;1.97;;
69185;SDS011;56298;49.246;9.410;2023-07-16T02:56:08;6.00;;;2.00;;
69185;SDS011;56298;49.246;9.410;2023-07-16T02:58:33;8.20;;;2.00;;
69185;SDS011;56298;49.246;9.410;2023-07-16T03:00:58;6.50;;;2.20;;
69185;SDS011;56298;49.246;9.410;2023-07-16T03:03:23;9.47;;;2.10;;
69185;SDS011;56298;49.246;9.410;2023-07-16T03:05:49;10.03;;;1.77;;
69185;SDS011;56298;49.246;9.410;2023-07-16T03:08:14;10.00;;;2.10;;
69185;SDS011;56298;49.246;9.410;2023-07-16T03:10:39;8.17;;;2.00;;
69185;SDS011;56298;49.246;9.410;2023-07-16T03:13:04;11.87;;;2.10;;
69185;SDS011;56298;49.246;9.410;2023-07-16T03:15:30;9.30;;;2.17;;
69185;SDS011;56298;49.246;9.410;2023-07-16T03:17:55;9.30;;;2.37;;
69185;SDS011;56298;49.246;9.410;2023-07-16T03:20:20;6.47;;;1.90;;
69185;SDS011;56298;49.246;9.410;2023-07-16T03:22:45;6.60;;;1.87;;
69185;SDS011;56298;49.246;9.410;2023-07-16T03:25:11;8.37;;;1.90;;
69185;SDS011;56298;49.246;9.410;2023-07-16T03:27:36;5.30;;;1.87;;
69185;SDS011;56298;49.246;9.410;2023-07-16T03:30:01;8.20;;;1.90;;
69185;SDS011;56298;49.246;9.410;2023-07-16T03:32:27;6.07;;;1.85;;
69185;SDS011;56298;49.246;9.410;2023-07-16T03:34:53;7.37;;;2.10;;
69185;SDS011;56298;49.246;9.410;2023-07-16T03:37:18;8.57;;;2.10;;
69185;SDS011;56298;49.246;9.410;2023-07-16T03:39:43;8.00;;;1.87;;
69185;SDS011;56298;49.246;9.410;2023-07-16T03:42:08;8.33;;;2.40;;
69185;SDS011;56298;49.246;9.410;2023-07-16T03:44:34;8.13;;;2.10;;
69185;SDS011;56298;49.246;9.410;2023-07-16T03:46:59;9.03;;;2.20;;
69185;SDS011;56298;49.246;9.410;2023-07-16T03:49:24;6.17;;;2.00;;
69185;SDS011;56298;49.246;9.410;2023-07-16T03:51:49;7.10;;;1.87;;
69185;SDS011;56298;49.246;9.410;2023-07-16T03:54:15;8.20;;;1.70;;
69185;SDS011;56298;49.246;9.410;2023-07-16T03:56:40;8.53;;;1.90;;
69185;SDS011;56298;49.246;9.410;2023-07-16T03:59:05;9.03;;;2.10;;
69185;SDS011;56298;49.246;9.410;2023-07-16T04:01:30;8.73;;;2.13;;
69185;SDS011;56298;49.246;9.410;2023-07-16T04:03:56;10.03;;;2.00;;
69185;SDS011;56298;49.246;9.410;2023-07-16T04:06:21;8.17;;;2.00;;
69185;SDS011;56298;49.246;9.410;2023-07-16T04:08:46;8.60;;;1.83;;
69185;SDS011;56298;49.246;9.410;2023-07-16T04:11:11;7.03;;;1.80;;
69185;SDS011;56298;49.246;9.410;2023-07-16T04:13:37;7.97;;;1.90;;
69185;SDS011;56298;49.246;9.410;2023-07-16T04:16:02;8.67;;;2.10;;
69185;SDS011;56298;49.246;9.410;2023-07-16T04:18:27;7.30;;;1.77;;
69185;SDS011;56298;49.246;9.410;2023-07-16T04:20:53;6.20;;;1.93;;
69185;SDS011;56298;49.246;9.410;2023-07-16T04:23:18;6.70;;;1.90;;
69185;SDS011;56298;49.246;9.410;2023-07-16T04:25:44;6.57;;;1.73;;
69185;SDS011;56298;49.246;9.410;2023-07-16T04:28:10;7.27;;;2.00;;
69185;SDS011;56298;49.246;9.410;2023-07-16T04:30:36;7.38;;;1.70;;
69185;SDS011;56298;49.246;9.410;2023-07-16T04:33:02;7.22;;;1.83;;
69185;SDS011;56298;49.246;9.410;2023-07-16T04:35:28;8.38;;;1.60;;
69185;SDS011;56298;49.246;9.410;2023-07-16T04:37:53;5.80;;;1.70;;
69185;SDS011;56298;49.246;9.410;2023-07-16T04:40:18;7.77;;;1.97;;
69185;SDS011;56298;49.246;9.410;2023-07-16T04:42:43;8.20;;;2.20;;
69185;SDS011;56298;49.246;9.410;2023-07-16T04:45:09;7.47;;;1.93;;
69185;SDS011;56298;49.246;9.410;2023-07-16T04:47:34;6.53;;;1.97;;
69185;SDS011;56298;49.246;9.410;2023-07-16T04:49:59;8.87;;;2.00;;
69185;SDS011;56298;49.246;9.410;2023-07-16T04:52:24;8.60;;;2.20;;
69185;SDS011;56298;49.246;9.410;2023-07-16T04:54:50;6.90;;;1.70;;
69185;SDS011;56298;49.246;9.410;2023-07-16T04:57:15;6.33;;;1.93;;
69185;SDS011;56298;49.246;9.410;2023-07-16T04:59:40;10.07;;;2.00;;
69185;SDS011;56298;49.246;9.410;2023-07-16T05:02:06;9.65;;;2.00;;
69185;SDS011;56298;49.246;9.410;2023-07-16T05:04:32;9.55;;;1.77;;
69185;SDS011;56298;49.246;9.410;2023-07-16T05:06:58;8.57;;;2.10;;
69185;SDS011;56298;49.246;9.410;2023-07-16T05:09:23;9.80;;;2.33;;
69185;SDS011;56298;49.246;9.410;2023-07-16T05:11:48;10.47;;;2.20;;
69185;SDS011;56298;49.246;9.410;2023-07-16T05:14:13;8.70;;;2.10;;
69185;SDS011;56298;49.246;9.410;2023-07-16T05:16:39;8.87;;;2.10;;
69185;SDS011;56298;49.246;9.410;2023-07-16T05:19:04;8.90;;;2.13;;
69185;SDS011;56298;49.246;9.410;2023-07-16T05:21:29;9.57;;;1.90;;
69185;SDS011;56298;49.246;9.410;2023-07-16T05:23:54;9.63;;;1.97;;
69185;SDS011;56298;49.246;9.410;2023-07-16T05:26:20;8.10;;;2.30;;
69185;SDS011;56298;49.246;9.410;2023-07-16T05:28:45;11.37;;;2.20;;
69185;SDS011;56298;49.246;9.410;2023-07-16T05:31:10;8.43;;;2.00;;
69185;SDS011;56298;49.246;9.410;2023-07-16T05:33:35;10.80;;;2.38;;
69185;SDS011;56298;49.246;9.410;2023-07-16T05:36:01;10.07;;;2.20;;
69185;SDS011;56298;49.246;9.410;2023-07-16T05:38:26;10.18;;;1.88;;
69185;SDS011;56298;49.246;9.410;2023-07-16T05:40:51;8.97;;;1.97;;
69185;SDS011;56298;49.246;9.410;2023-07-16T05:43:16;10.47;;;2.17;;
69185;SDS011;56298;49.246;9.410;2023-07-16T05:45:42;10.67;;;2.13;;
69185;SDS011;56298;49.246;9.410;2023-07-16T05:48:07;8.00;;;1.93;;
69185;SDS011;56298;49.246;9.410;2023-07-16T05:50:32;9.40;;;2.10;;
69185;SDS011;56298;49.246;9.410;2023-07-16T05:52:58;11.13;;;1.90;;
69185;SDS011;56298;49.246;9.410;2023-07-16T05:55:23;8.90;;;1.67;;
69185;SDS011;56298;49.246;9.410;2023-07-16T05:57:48;7.63;;;1.77;;
69185;SDS011;56298;49.246;9.410;2023-07-16T06:00:13;8.97;;;1.90;;
69185;SDS011;56298;49.246;9.410;2023-07-16T06:02:39;7.27;;;1.70;;
69185;SDS011;56298;49.246;9.410;2023-07-16T06:05:05;8.27;;;1.63;;
69185;SDS011;56298;49.246;9.410;2023-07-16T06:07:30;8.17;;;1.70;;
69185;SDS011;56298;49.246;9.410;2023-07-16T06:09:56;6.93;;;1.50;;
69185;SDS011;56298;49.246;9.410;2023-07-16T06:12:22;7.53;;;1.60;;
69185;SDS011;56298;49.246;9.410;2023-07-16T06:14:47;8.40;;;1.53;;
69185;SDS011;56298;49.246;9.410;2023-07-16T06:17:12;9.53;;;1.97;;
69185;SDS011;56298;49.246;9.410;2023-07-16T06:19:37;7.27;;;1.67;;
69185;SDS011;56298;49.246;9.410;2023-07-16T06:22:03;7.20;;;1.50;;
69185;SDS011;56298;49.246;9.410;2023-07-16T06:24:28;7.17;;;1.23;;
69185;SDS011;56298;49.246;9.410;2023-07-16T06:26:53;6.73;;;1.40;;
69185;SDS011;56298;49.246;9.410;2023-07-16T06:29:19;7.83;;;1.60;;
69185;SDS011;56298;49.246;9.410;2023-07-16T06:31:53;9.30;;;1.60;;
69185;SDS011;56298;49.246;9.410;2023-07-16T06:34:20;6.80;;;1.30;;
69185;SDS011;56298;49.246;9.410;2023-07-16T06:36:45;7.90;;;1.40;;
69185;SDS011;56298;49.246;9.410;2023-07-16T06:39:11;6.73;;;1.50;;
69185;SDS011;56298;49.246;9.410;2023-07-16T06:41:36;9.20;;;1.80;;
69185;SDS011;56298;49.246;9.410;2023-07-16T06:44:01;6.97;;;1.60;;
69185;SDS011;56298;49.246;9.410;2023-07-16T06:46:27;8.27;;;1.80;;
69185;SDS011;56298;49.246;9.410;2023-07-16T06:48:52;6.28;;;1.70;;
69185;SDS011;56298;49.246;9.410;2023-07-16T06:51:17;7.78;;;1.65;;
69185;SDS011;56298;49.246;9.410;2023-07-16T06:53:43;9.50;;;1.70;;
69185;SDS011;56298;49.246;9.410;2023-07-16T06:56:08;6.67;;;1.70;;
69185;SDS011;56298;49.246;9.410;2023-07-16T06:58:33;10.30;;;1.70;;
69185;SDS011;56298;49.246;9.410;2023-07-16T07:00:59;8.02;;;1.52;;
69185;SDS011;56298;49.246;9.410;2023-07-16T07:03:24;6.83;;;1.50;;
69185;SDS011;56298;49.246;9.410;2023-07-16T07:05:50;7.30;;;1.43;;
69185;SDS011;56298;49.246;9.410;2023-07-16T07:08:15;7.93;;;1.77;;
69185;SDS011;56298;49.246;9.410;2023-07-16T07:10:40;8.30;;;1.67;;
69185;SDS011;56298;49.246;9.410;2023-07-16T07:13:05;8.60;;;1.60;;
69185;SDS011;56298;49.246;9.410;2023-07-16T07:15:31;7.27;;;1.50;;
69185;SDS011;56298;49.246;9.410;2023-07-16T07:17:56;7.47;;;1.77;;
69185;SDS011;56298;49.246;9.410;2023-07-16T07:20:21;6.87;;;1.70;;
69185;SDS011;56298;49.246;9.410;2023-07-16T07:22:47;8.47;;;1.47;;
69185;SDS011;56298;49.246;9.410;2023-07-16T07:25:13;7.40;;;1.70;;
69185;SDS011;56298;49.246;9.410;2023-07-16T07:27:38;7.13;;;1.42;;
69185;SDS011;56298;49.246;9.410;2023-07-16T07:30:04;6.40;;;1.60;;
69185;SDS011;56298;49.246;9.410;2023-07-16T07:32:30;7.27;;;1.90;;
69185;SDS011;56298;49.246;9.410;2023-07-16T07:34:55;7.50;;;1.70;;
69185;SDS011;56298;49.246;9.410;2023-07-16T07:37:20;7.80;;;1.73;;
69185;SDS011;56298;49.246;9.410;2023-07-16T07:39:45;7.80;;;1.63;;
69185;SDS011;56298;49.246;9.410;2023-07-16T07:42:16;6.93;;;1.60;;
69185;SDS011;56298;49.246;9.410;2023-07-16T07:44:42;7.00;;;1.70;;
69185;SDS011;56298;49.246;9.410;2023-07-16T07:47:07;7.47;;;2.07;;
69185;SDS011;56298;49.246;9.410;2023-07-16T07:49:33;7.55;;;1.95;;
69185;SDS011;56298;49.246;9.410;2023-07-16T07:51:59;8.60;;;1.90;;
69185;SDS011;56298;49.246;9.410;2023-07-16T07:54:24;6.23;;;2.10;;
69185;SDS011;56298;49.246;9.410;2023-07-16T07:56:49;10.10;;;1.93;;
69185;SDS011;56298;49.246;9.410;2023-07-16T07:59:15;6.70;;;2.00;;
69185;SDS011;56298;49.246;9.410;2023-07-16T08:01:40;9.10;;;2.10;;
69185;SDS011;56298;49.246;9.410;2023-07-16T08:04:05;7.50;;;1.90;;
69185;SDS011;56298;49.246;9.410;2023-07-16T08:06:31;7.00;;;1.90;;
69185;SDS011;56298;49.246;9.410;2023-07-16T08:08:56;7.00;;;1.90;;
69185;SDS011;56298;49.246;9.410;2023-07-16T08:11:22;6.83;;;1.80;;
69185;SDS011;56298;49.246;9.410;2023-07-16T08:13:47;7.20;;;1.70;;
69185;SDS011;56298;49.246;9.410;2023-07-16T08:16:14;6.83;;;1.87;;
69185;SDS011;56298;49.246;9.410;2023-07-16T08:18:39;8.80;;;1.90;;
69185;SDS011;56298;49.246;9.410;2023-07-16T08:21:04;8.63;;;2.00;;
69185;SDS011;56298;49.246;9.410;2023-07-16T08:23:29;6.83;;;1.57;;
69185;SDS011;56298;49.246;9.410;2023-07-16T08:25:55;6.80;;;1.80;;
69185;SDS011;56298;49.246;9.410;2023-07-16T08:28:20;6.17;;;1.70;;
69185;SDS011;56298;49.246;9.410;2023-07-16T08:30:48;7.10;;;1.93;;
69185;SDS011;56298;49.246;9.410;2023-07-16T08:33:14;8.13;;;2.05;;
69185;SDS011;56298;49.246;9.410;2023-07-16T08:35:39;6.97;;;2.10;;
69185;SDS011;56298;49.246;9.410;2023-07-16T08:38:05;7.63;;;1.95;;
69185;SDS011;56298;49.246;9.410;2023-07-16T08:40:34;8.17;;;2.10;;
69185;SDS011;56298;49.246;9.410;2023-07-16T08:43:00;8.07;;;1.90;;
69185;SDS011;56298;49.246;9.410;2023-07-16T08:45:25;6.67;;;1.73;;
69185;SDS011;56298;49.246;9.410;2023-07-16T08:47:53;5.55;;;1.80;;
69185;SDS011;56298;49.246;9.410;2023-07-16T08:50:19;8.00;;;1.90;;
69185;SDS011;56298;49.246;9.410;2023-07-16T08:52:46;7.25;;;1.85;;
69185;SDS011;56298;49.246;9.410;2023-07-16T08:55:12;7.90;;;2.00;;
69185;SDS011;56298;49.246;9.410;2023-07-16T08:57:38;9.37;;;1.90;;
69185;SDS011;56298;49.246;9.410;2023-07-16T09:00:05;7.78;;;1.80;;
69185;SDS011;56298;49.246;9.410;2023-07-16T09:02:31;7.00;;;1.88;;
69185;SDS011;56298;49.246;9.410;2023-07-16T09:04:57;6.27;;;1.90;;
69185;SDS011;56298;49.246;9.410;2023-07-16T09:07:23;6.95;;;1.80;;
69185;SDS011;56298;49.246;9.410;2023-07-16T09:09:55;8.57;;;2.00;;
69185;SDS011;56298;49.246;9.410;2023-07-16T09:12:23;8.35;;;1.80;;
69185;SDS011;56298;49.246;9.410;2023-07-16T09:14:49;8.02;;;1.90;;
69185;SDS011;56298;49.246;9.410;2023-07-16T09:17:19;7.17;;;1.90;;
69185;SDS011;56298;49.246;9.410;2023-07-16T09:19:45;7.90;;;1.67;;
69185;SDS011;56298;49.246;9.410;2023-07-16T09:22:11;6.73;;;1.70;;
69185;SDS011;56298;49.246;9.410;2023-07-16T09:24:36;6.83;;;1.63;;
69185;SDS011;56298;49.246;9.410;2023-07-16T09:27:01;7.50;;;1.90;;
69185;SDS011;56298;49.246;9.410;2023-07-16T09:29:27;7.60;;;1.63;;
69185;SDS011;56298;49.246;9.410;2023-07-16T09:34:19;8.00;;;1.80;;
69185;SDS011;56298;49.246;9.410;2023-07-16T09:36:46;7.13;;;1.80;;
69185;SDS011;56298;49.246;9.410;2023-07-16T09:39:13;6.38;;;1.60;;
69185;SDS011;56298;49.246;9.410;2023-07-16T09:41:40;6.00;;;1.60;;
69185;SDS011;56298;49.246;9.410;2023-07-16T09:44:07;5.22;;;1.55;;
69185;SDS011;56298;49.246;9.410;2023-07-16T09:46:32;8.23;;;2.00;;
69185;SDS011;56298;49.246;9.410;2023-07-16T09:48:57;6.23;;;1.60;;
69185;SDS011;56298;49.246;9.410;2023-07-16T09:51:23;6.70;;;1.57;;
69185;SDS011;56298;49.246;9.410;2023-07-16T09:53:49;6.35;;;1.60;;
69185;SDS011;56298;49.246;9.410;2023-07-16T09:56:16;7.20;;;1.50;;
69185;SDS011;56298;49.246;9.410;2023-07-16T09:58:43;6.43;;;1.70;;
69185;SDS011;56298;49.246;9.410;2023-07-16T10:01:08;7.53;;;1.70;;
69185;SDS011;56298;49.246;9.410;2023-07-16T10:03:34;6.87;;;1.70;;
69185;SDS011;56298;49.246;9.410;2023-07-16T10:06:09;8.10;;;1.80;;
69185;SDS011;56298;49.246;9.410;2023-07-16T10:08:34;8.00;;;1.70;;
69185;SDS011;56298;49.246;9.410;2023-07-16T10:11:00;6.47;;;1.70;;
69185;SDS011;56298;49.246;9.410;2023-07-16T10:13:26;6.00;;;1.70;;
69185;SDS011;56298;49.246;9.410;2023-07-16T10:20:59;6.00;;;1.75;;
69185;SDS011;56298;49.246;9.410;2023-07-16T10:23:25;6.80;;;1.83;;
69185;SDS011;56298;49.246;9.410;2023-07-16T10:26:02;6.82;;;1.77;;
69185;SDS011;56298;49.246;9.410;2023-07-16T10:28:31;6.10;;;1.70;;
69185;SDS011;56298;49.246;9.410;2023-07-16T10:30:57;7.00;;;1.80;;
69185;SDS011;56298;49.246;9.410;2023-07-16T10:33:23;6.28;;;1.80;;
69185;SDS011;56298;49.246;9.410;2023-07-16T10:35:48;5.77;;;1.70;;
69185;SDS011;56298;49.246;9.410;2023-07-16T10:38:13;8.03;;;2.03;;
69185;SDS011;56298;49.246;9.410;2023-07-16T10:40:43;6.50;;;1.70;;
69185;SDS011;56298;49.246;9.410;2023-07-16T10:43:09;6.28;;;1.88;;
69185;SDS011;56298;49.246;9.410;2023-07-16T10:45:35;6.17;;;1.70;;
69185;SDS011;56298;49.246;9.410;2023-07-16T10:48:00;5.97;;;1.90;;
69185;SDS011;56298;49.246;9.410;2023-07-16T10:50:25;6.43;;;1.70;;
69185;SDS011;56298;49.246;9.410;2023-07-16T10:52:55;7.53;;;2.00;;
69185;SDS011;56298;49.246;9.410;2023-07-16T10:55:21;6.63;;;1.92;;
69185;SDS011;56298;49.246;9.410;2023-07-16T10:57:48;7.43;;;1.83;;
69185;SDS011;56298;49.246;9.410;2023-07-16T11:00:15;6.25;;;1.80;;
69185;SDS011;56298;49.246;9.410;2023-07-16T11:02:41;6.82;;;1.80;;
69185;SDS011;56298;49.246;9.410;2023-07-16T11:05:11;6.40;;;1.70;;
69185;SDS011;56298;49.246;9.410;2023-07-16T11:07:37;7.40;;;1.80;;
69185;SDS011;56298;49.246;9.410;2023-07-16T11:10:03;7.32;;;2.00;;
69185;SDS011;56298;49.246;9.410;2023-07-16T11:12:28;7.63;;;1.80;;
69185;SDS011;56298;49.246;9.410;2023-07-16T11:14:54;5.73;;;1.67;;
69185;SDS011;56298;49.246;9.410;2023-07-16T11:17:21;5.85;;;1.70;;
69185;SDS011;56298;49.246;9.410;2023-07-16T11:19:49;5.82;;;1.88;;
69185;SDS011;56298;49.246;9.410;2023-07-16T11:22:16;6.38;;;1.88;;
69185;SDS011;56298;49.246;9.410;2023-07-16T11:24:42;5.88;;;1.80;;
69185;SDS011;56298;49.246;9.410;2023-07-16T11:27:15;7.03;;;1.93;;
69185;SDS011;56298;49.246;9.410;2023-07-16T11:29:48;6.22;;;1.90;;
69185;SDS011;56298;49.246;9.410;2023-07-16T11:32:28;6.20;;;2.00;;
69185;SDS011;56298;49.246;9.410;2023-07-16T11:34:55;7.78;;;2.10;;
69185;SDS011;56298;49.246;9.410;2023-07-16T11:37:21;6.40;;;1.90;;
69185;SDS011;56298;49.246;9.410;2023-07-16T11:39:46;6.07;;;1.80;;
69185;SDS011;56298;49.246;9.410;2023-07-16T11:42:13;6.60;;;1.80;;
69185;SDS011;56298;49.246;9.410;2023-07-16T11:44:38;6.50;;;2.07;;
69185;SDS011;56298;49.246;9.410;2023-07-16T11:47:03;6.13;;;1.87;;
69185;SDS011;56298;49.246;9.410;2023-07-16T11:49:29;7.10;;;1.90;;
69185;SDS011;56298;49.246;9.410;2023-07-16T11:51:55;5.65;;;1.80;;
69185;SDS011;56298;49.246;9.410;2023-07-16T11:54:21;7.20;;;1.80;;
69185;SDS011;56298;49.246;9.410;2023-07-16T11:56:46;8.20;;;2.20;;
69185;SDS011;56298;49.246;9.410;2023-07-16T11:59:12;5.68;;;1.70;;
69185;SDS011;56298;49.246;9.410;2023-07-16T12:01:38;5.37;;;1.83;;
69185;SDS011;56298;49.246;9.410;2023-07-16T12:04:03;6.53;;;2.10;;
69185;SDS011;56298;49.246;9.410;2023-07-16T12:06:28;6.00;;;1.90;;
69185;SDS011;56298;49.246;9.410;2023-07-16T12:08:54;6.83;;;2.00;;
69185;SDS011;56298;49.246;9.410;2023-07-16T12:11:20;7.05;;;1.92;;
69185;SDS011;56298;49.246;9.410;2023-07-16T12:13:45;5.67;;;1.80;;
69185;SDS011;56298;49.246;9.410;2023-07-16T12:16:11;6.30;;;2.00;;
69185;SDS011;56298;49.246;9.410;2023-07-16T12:18:36;6.27;;;1.90;;
69185;SDS011;56298;49.246;9.410;2023-07-16T12:21:01;4.80;;;1.80;;
69185;SDS011;56298;49.246;9.410;2023-07-16T12:23:27;6.47;;;2.13;;
69185;SDS011;56298;49.246;9.410;2023-07-16T12:25:52;6.03;;;1.97;;
69185;SDS011;56298;49.246;9.410;2023-07-16T12:28:17;7.00;;;2.10;;
69185;SDS011;56298;49.246;9.410;2023-07-16T12:30:43;5.60;;;1.87;;
69185;SDS011;56298;49.246;9.410;2023-07-16T12:33:08;6.50;;;1.87;;
69185;SDS011;56298;49.246;9.410;2023-07-16T12:35:33;5.97;;;2.10;;
69185;SDS011;56298;49.246;9.410;2023-07-16T12:37:58;5.40;;;1.90;;
69185;SDS011;56298;49.246;9.410;2023-07-16T12:40:24;6.63;;;2.00;;
69185;SDS011;56298;49.246;9.410;2023-07-16T12:42:50;7.72;;;1.92;;
69185;SDS011;56298;49.246;9.410;2023-07-16T12:45:15;6.47;;;1.90;;
69185;SDS011;56298;49.246;9.410;2023-07-16T12:47:40;7.20;;;2.20;;
69185;SDS011;56298;49.246;9.410;2023-07-16T12:50:07;6.65;;;1.98;;
69185;SDS011;56298;49.246;9.410;2023-07-16T12:52:32;6.22;;;2.20;;
69185;SDS011;56298;49.246;9.410;2023-07-16T12:54:58;6.77;;;2.10;;
69185;SDS011;56298;49.246;9.410;2023-07-16T12:57:23;8.27;;;1.90;;
69185;SDS011;56298;49.246;9.410;2023-07-16T12:59:48;6.27;;;1.87;;
69185;SDS011;56298;49.246;9.410;2023-07-16T13:02:13;6.57;;;2.10;;
69185;SDS011;56298;49.246;9.410;2023-07-16T13:04:39;6.60;;;2.27;;
69185;SDS011;56298;49.246;9.410;2023-07-16T13:07:04;6.37;;;1.93;;
69185;SDS011;56298;49.246;9.410;2023-07-16T13:09:29;6.03;;;1.93;;
69185;SDS011;56298;49.246;9.410;2023-07-16T13:11:55;5.43;;;1.95;;
69185;SDS011;56298;49.246;9.410;2023-07-16T13:14:20;7.10;;;2.00;;
69185;SDS011;56298;49.246;9.410;2023-07-16T13:16:45;5.97;;;1.97;;
69185;SDS011;56298;49.246;9.410;2023-07-16T13:19:10;6.27;;;1.90;;
69185;SDS011;56298;49.246;9.410;2023-07-16T13:21:36;7.37;;;2.10;;
69185;SDS011;56298;49.246;9.410;2023-07-16T13:24:01;6.10;;;1.97;;
69185;SDS011;56298;49.246;9.410;2023-07-16T13:26:27;6.93;;;2.08;;
69185;SDS011;56298;49.246;9.410;2023-07-16T13:28:53;7.07;;;2.00;;
69185;SDS011;56298;49.246;9.410;2023-07-16T13:31:18;5.47;;;2.00;;
69185;SDS011;56298;49.246;9.410;2023-07-16T13:33:43;5.83;;;1.90;;
69185;SDS011;56298;49.246;9.410;2023-07-16T13:36:08;6.07;;;1.93;;
69185;SDS011;56298;49.246;9.410;2023-07-16T13:38:33;5.93;;;1.87;;
69185;SDS011;56298;49.246;9.410;2023-07-16T13:40:59;8.37;;;2.20;;
69185;SDS011;56298;49.246;9.410;2023-07-16T13:43:24;5.40;;;1.97;;
69185;SDS011;56298;49.246;9.410;2023-07-16T13:45:49;6.03;;;1.90;;
69185;SDS011;56298;49.246;9.410;2023-07-16T13:48:14;7.23;;;2.10;;
69185;SDS011;56298;49.246;9.410;2023-07-16T13:50:40;6.07;;;1.80;;
69185;SDS011;56298;49.246;9.410;2023-07-16T13:53:05;5.10;;;2.10;;
69185;SDS011;56298;49.246;9.410;2023-07-16T13:55:31;7.53;;;2.15;;
69185;SDS011;56298;49.246;9.410;2023-07-16T13:57:56;7.93;;;2.20;;
69185;SDS011;56298;49.246;9.410;2023-07-16T14:00:22;6.23;;;1.87;;
69185;SDS011;56298;49.246;9.410;2023-07-16T14:02:47;6.95;;;2.10;;
69185;SDS011;56298;49.246;9.410;2023-07-16T14:05:22;6.47;;;2.07;;
69185;SDS011;56298;49.246;9.410;2023-07-16T14:07:47;7.13;;;2.20;;
69185;SDS011;56298;49.246;9.410;2023-07-16T14:10:12;7.00;;;2.00;;
69185;SDS011;56298;49.246;9.410;2023-07-16T14:12:38;7.10;;;2.00;;
69185;SDS011;56298;49.246;9.410;2023-07-16T14:15:03;5.57;;;1.83;;
69185;SDS011;56298;49.246;9.410;2023-07-16T14:17:29;5.23;;;1.97;;
69185;SDS011;56298;49.246;9.410;2023-07-16T14:19:54;6.60;;;2.03;;
69185;SDS011;56298;49.246;9.410;2023-07-16T14:22:20;7.40;;;2.00;;
69185;SDS011;56298;49.246;9.410;2023-07-16T14:24:46;5.13;;;1.92;;
69185;SDS011;56298;49.246;9.410;2023-07-16T14:27:15;6.75;;;2.00;;
69185;SDS011;56298;49.246;9.410;2023-07-16T14:29:42;6.40;;;1.83;;
69185;SDS011;56298;49.246;9.410;2023-07-16T14:32:08;6.67;;;1.80;;
69185;SDS011;56298;49.246;9.410;2023-07-16T14:34:33;5.30;;;2.13;;
69185;SDS011;56298;49.246;9.410;2023-07-16T14:36:58;5.77;;;1.90;;
69185;SDS011;56298;49.246;9.410;2023-07-16T14:39:23;6.43;;;2.07;;
69185;SDS011;56298;49.246;9.410;2023-07-16T14:41:48;6.75;;;2.40;;
69185;SDS011;56298;49.246;9.410;2023-07-16T14:44:14;6.63;;;2.05;;
69185;SDS011;56298;49.246;9.410;2023-07-16T14:46:39;6.07;;;2.00;;
69185;SDS011;56298;49.246;9.410;2023-07-16T14:49:04;6.07;;;2.00;;
69185;SDS011;56298;49.246;9.410;2023-07-16T14:51:29;7.27;;;2.17;;